Time;durP1;ratioP1;P1;durP2;ratioP2;P2;SDS_P1;SDS_P2;PMS_P1;PMS_P2;Temp;Humidity;BMP_temperature;BMP_pressure;BME280_temperature;BME280_humidity;BME280_pressure;Samples;Min_cycle;Max_cycle;Signal;HPM_P1;HPM_P2
2022/07/17 00:02:01;;;;;;;8.18;2.22;;;;;;;14.80;63.45;102614.78;5100012;28;20039;-47
2022/07/17 00:04:26;;;;;;;8.10;2.03;;;;;;;14.73;63.66;102611.66;5091130;28;20089;-44
2022/07/17 00:06:52;;;;;;;5.03;2.17;;;;;;;14.71;63.58;102616.25;5103970;28;20027;-43
2022/07/17 00:09:17;;;;;;;7.28;2.03;;;;;;;14.68;63.58;102615.59;5094532;28;20425;-44
2022/07/17 00:11:43;;;;;;;5.97;1.83;;;;;;;14.70;63.77;102616.34;5103911;28;20047;-44
2022/07/17 00:14:08;;;;;;;5.18;1.92;;;;;;;14.64;64.03;102614.06;5104186;28;20043;-47
2022/07/17 00:16:33;;;;;;;4.22;2.10;;;;;;;14.61;64.50;102624.03;5103641;28;20107;-44
2022/07/17 00:18:59;;;;;;;6.15;1.85;;;;;;;14.55;64.58;102624.38;5099709;28;20032;-45
2022/07/17 00:21:24;;;;;;;6.00;2.10;;;;;;;14.51;64.34;102622.03;5105090;28;20035;-46
2022/07/17 00:23:50;;;;;;;8.52;2.40;;;;;;;14.46;64.73;102622.31;5105227;28;20262;-44
2022/07/17 00:26:15;;;;;;;7.88;2.25;;;;;;;14.40;64.50;102622.72;5104636;28;20046;-47
2022/07/17 00:28:41;;;;;;;7.25;2.00;;;;;;;14.31;65.13;102624.16;5105239;28;20042;-45
2022/07/17 00:31:06;;;;;;;7.57;2.20;;;;;;;14.25;64.92;102617.41;5103856;28;20407;-47
2022/07/17 00:33:32;;;;;;;6.00;2.45;;;;;;;14.23;65.29;102618.44;5104020;28;20084;-46
2022/07/17 00:35:57;;;;;;;5.93;2.10;;;;;;;14.16;66.29;102617.97;5102535;28;20039;-45
2022/07/17 00:38:22;;;;;;;10.13;2.30;;;;;;;14.11;66.35;102620.09;5100602;28;20186;-45
2022/07/17 00:40:48;;;;;;;4.77;2.37;;;;;;;14.19;66.21;102619.63;5103236;28;20028;-45
2022/07/17 00:43:13;;;;;;;7.03;2.60;;;;;;;14.13;66.50;102618.16;5104020;28;20293;-45
2022/07/17 00:45:38;;;;;;;7.25;2.20;;;;;;;14.15;66.51;102615.41;5105896;28;20435;-44
2022/07/17 00:48:09;;;;;;;7.00;2.13;;;;;;;14.12;66.56;102620.94;5093876;28;20115;-45
2022/07/17 00:53:10;;;;;;;4.85;2.42;;;;;;;14.02;67.04;102621.53;5131456;22;20506;-81
2022/07/17 00:55:36;;;;;;;8.07;2.40;;;;;;;13.98;67.00;102616.47;5060018;28;20171;-80
2022/07/17 00:58:04;;;;;;;4.97;2.40;;;;;;;13.92;67.50;102611.50;5093182;28;20047;-81
2022/07/17 01:00:29;;;;;;;7.47;2.60;;;;;;;13.95;67.20;102617.50;5086756;28;20024;-80
2022/07/17 01:02:55;;;;;;;5.32;1.90;;;;;;;13.97;66.86;102612.06;5093785;28;20077;-80
2022/07/17 01:05:22;;;;;;;4.68;2.25;;;;;;;13.86;67.29;102618.09;5092544;28;20402;-80
2022/07/17 01:07:48;;;;;;;4.43;2.25;;;;;;;13.84;67.38;102612.84;5093359;28;20024;-81
2022/07/17 01:10:16;;;;;;;5.70;2.47;;;;;;;13.86;67.49;102613.63;5089461;28;20043;-81
2022/07/17 01:12:42;;;;;;;6.10;2.28;;;;;;;13.80;67.09;102605.97;5082521;28;20051;-81
2022/07/17 01:15:11;;;;;;;4.38;2.13;;;;;;;13.76;67.51;102608.94;5079132;28;20033;-81
2022/07/17 01:17:37;;;;;;;5.22;2.53;;;;;;;13.68;68.04;102612.94;5084461;28;20475;-81
2022/07/17 01:20:06;;;;;;;3.65;2.28;;;;;;;13.66;68.02;102606.00;5081723;28;20103;-81
2022/07/17 01:22:31;;;;;;;6.63;3.05;;;;;;;13.63;67.63;102611.50;5087414;28;20359;-81
2022/07/17 01:24:57;;;;;;;6.47;2.30;;;;;;;13.60;67.77;102609.88;5083591;28;20478;-81
2022/07/17 01:27:22;;;;;;;4.47;2.53;;;;;;;13.49;68.26;102605.22;5086694;28;20033;-81
2022/07/17 01:29:47;;;;;;;7.82;2.35;;;;;;;13.46;68.03;102602.72;5081505;28;20108;-81
2022/07/17 01:32:12;;;;;;;6.40;2.58;;;;;;;13.39;68.61;102604.06;5087883;28;20107;-81
2022/07/17 01:34:38;;;;;;;8.05;2.50;;;;;;;13.34;68.43;102600.81;5091203;28;20032;-81
2022/07/17 01:37:03;;;;;;;7.82;2.45;;;;;;;13.30;68.82;102594.72;5088794;28;20031;-81
2022/07/17 01:42:12;;;;;;;7.35;2.55;;;;;;;13.26;69.23;102589.69;5079388;28;20092;-80
2022/07/17 01:44:37;;;;;;;6.82;2.72;;;;;;;13.25;68.85;102591.47;5085854;28;20028;-80
2022/07/17 01:47:04;;;;;;;4.80;2.50;;;;;;;13.19;69.79;102604.34;5087366;28;20084;-80
2022/07/17 01:49:29;;;;;;;8.00;2.55;;;;;;;13.22;69.45;102605.03;5088457;28;20028;-79
2022/07/17 01:51:59;;;;;;;6.07;2.85;;;;;;;13.25;69.35;102601.31;5076132;28;20055;-80
2022/07/17 01:54:25;;;;;;;5.95;2.95;;;;;;;13.18;69.63;102607.97;5068981;28;20029;-80
2022/07/17 01:56:50;;;;;;;5.18;2.50;;;;;;;13.19;69.78;102609.66;5071886;28;20044;-80
2022/07/17 01:59:15;;;;;;;4.32;2.25;;;;;;;13.13;69.11;102614.41;5070787;28;20040;-80
2022/07/17 02:01:40;;;;;;;5.30;2.40;;;;;;;13.17;68.95;102612.44;5065890;28;20029;-80
2022/07/17 02:04:06;;;;;;;6.03;2.40;;;;;;;13.13;69.56;102617.09;5051546;28;20493;-80
2022/07/17 02:06:34;;;;;;;8.93;2.57;;;;;;;13.14;69.11;102633.97;5060439;28;20036;-80
2022/07/17 02:08:59;;;;;;;3.30;2.22;;;;;;;13.11;68.82;102620.81;5071076;28;20306;-80
2022/07/17 02:11:25;;;;;;;5.57;2.78;;;;;;;13.03;69.29;102610.59;5069904;28;20446;-80
2022/07/17 02:13:50;;;;;;;6.88;2.35;;;;;;;13.01;69.55;102607.16;5060353;28;20029;-80
2022/07/17 02:16:15;;;;;;;6.45;2.83;;;;;;;12.94;69.01;102619.16;5058699;28;20063;-80
2022/07/17 02:18:41;;;;;;;5.38;2.65;;;;;;;12.87;69.89;102612.44;5059693;28;20092;-80
2022/07/17 02:21:09;;;;;;;5.70;2.65;;;;;;;12.85;70.15;102617.00;5076241;28;20422;-80
2022/07/17 02:23:34;;;;;;;5.95;2.40;;;;;;;12.80;69.68;102619.06;5052967;28;20021;-81
2022/07/17 02:25:59;;;;;;;4.60;2.67;;;;;;;12.75;70.27;102628.19;5070060;28;20078;-81
2022/07/17 02:28:24;;;;;;;7.43;2.53;;;;;;;12.80;70.28;102625.25;5074591;28;20043;-81
2022/07/17 02:30:50;;;;;;;5.13;2.50;;;;;;;12.75;70.47;102614.84;5077954;28;20036;-80
2022/07/17 02:33:15;;;;;;;4.95;2.80;;;;;;;12.76;70.38;102616.56;5060687;28;20287;-80
2022/07/17 02:35:40;;;;;;;8.90;3.05;;;;;;;12.72;70.54;102614.16;5078911;28;20103;-81
2022/07/17 02:38:06;;;;;;;10.60;3.47;;;;;;;12.72;70.19;102616.84;5071211;28;20047;-80
2022/07/17 02:40:31;;;;;;;7.57;2.65;;;;;;;12.68;70.90;102615.31;5075321;28;21365;-79
2022/07/17 02:42:57;;;;;;;5.15;3.03;;;;;;;12.67;70.91;102616.25;5070513;28;20395;-80
2022/07/17 02:45:24;;;;;;;8.50;3.55;;;;;;;12.62;70.62;102604.97;5069652;28;20092;-81
2022/07/17 02:47:50;;;;;;;7.68;3.30;;;;;;;12.58;70.74;102598.97;5067641;28;20080;-81
2022/07/17 02:50:16;;;;;;;9.23;3.35;;;;;;;12.49;71.16;102597.69;5073769;28;20029;-81
2022/07/17 02:52:43;;;;;;;10.40;2.80;;;;;;;12.50;71.13;102596.72;5088624;28;20191;-81
2022/07/17 02:55:10;;;;;;;9.00;3.28;;;;;;;12.45;71.67;102603.28;5072149;28;20025;-81
2022/07/17 02:57:38;;;;;;;6.43;2.80;;;;;;;12.43;71.99;102600.69;5089841;28;20426;-81
2022/07/17 03:00:07;;;;;;;8.85;2.90;;;;;;;12.42;71.78;102598.13;5087337;28;20028;-81
2022/07/17 03:02:32;;;;;;;4.05;2.85;;;;;;;12.38;71.76;102600.09;5093737;28;20028;-80
2022/07/17 03:04:58;;;;;;;5.88;3.35;;;;;;;12.38;71.81;102605.44;5084184;28;20024;-80
2022/07/17 03:07:23;;;;;;;5.10;2.90;;;;;;;12.39;71.72;102604.50;5089421;28;20448;-81
2022/07/17 03:09:48;;;;;;;9.20;2.92;;;;;;;12.43;71.58;102608.69;5079373;28;20036;-80
2022/07/17 03:12:14;;;;;;;4.90;2.78;;;;;;;12.41;71.72;102613.25;5090860;28;20032;-80
2022/07/17 03:14:39;;;;;;;5.88;2.95;;;;;;;12.44;71.52;102618.44;5091550;28;20390;-81
2022/07/17 03:17:04;;;;;;;8.90;2.70;;;;;;;12.38;71.16;102627.59;5094311;28;20508;-81
2022/07/17 03:19:30;;;;;;;6.78;2.60;;;;;;;12.40;71.32;102627.53;5083867;28;20024;-80
2022/07/17 03:21:55;;;;;;;7.30;2.80;;;;;;;12.36;71.17;102631.31;5081210;28;20046;-80
2022/07/17 03:24:21;;;;;;;6.50;2.50;;;;;;;12.30;71.18;102631.66;5086896;28;20117;-80
2022/07/17 03:26:46;;;;;;;6.05;2.60;;;;;;;12.32;71.07;102624.41;5090882;28;20092;-80
2022/07/17 03:29:11;;;;;;;6.28;2.67;;;;;;;12.25;70.97;102612.41;5085359;28;20039;-80
2022/07/17 03:31:36;;;;;;;7.13;2.67;;;;;;;12.20;71.33;102615.31;5080076;28;20326;-80
2022/07/17 03:34:02;;;;;;;6.25;2.67;;;;;;;12.15;71.45;102618.22;5083751;28;20360;-80
2022/07/17 03:36:27;;;;;;;6.22;2.90;;;;;;;12.11;72.06;102618.50;5094242;28;20032;-80
2022/07/17 03:38:52;;;;;;;5.93;2.95;;;;;;;12.11;72.31;102619.34;5065965;28;20024;-80
2022/07/17 03:41:18;;;;;;;7.13;3.17;;;;;;;12.13;72.15;102612.13;5066577;28;20024;-80
2022/07/17 03:43:43;;;;;;;11.23;3.00;;;;;;;12.08;71.95;102613.31;5086055;28;20259;-80
2022/07/17 03:46:08;;;;;;;5.78;2.70;;;;;;;12.07;72.52;102619.59;5085956;28;20025;-80
2022/07/17 03:48:34;;;;;;;7.30;2.60;;;;;;;12.06;71.66;102616.06;5093194;28;20045;-80
2022/07/17 03:50:59;;;;;;;6.50;3.40;;;;;;;12.07;72.51;102617.78;5092558;28;20278;-80
2022/07/17 03:53:25;;;;;;;8.98;2.90;;;;;;;12.05;72.54;102621.47;5092192;28;20082;-80
2022/07/17 03:55:50;;;;;;;5.53;2.97;;;;;;;12.08;72.56;102623.97;5089099;28;20020;-80
2022/07/17 03:58:15;;;;;;;4.65;3.03;;;;;;;12.00;72.67;102619.06;5079006;28;20027;-80
2022/07/17 04:00:41;;;;;;;5.32;3.03;;;;;;;12.01;72.69;102615.47;5082108;28;20028;-80
2022/07/17 04:03:06;;;;;;;9.52;3.13;;;;;;;11.97;73.17;102620.09;5090646;28;20020;-80
2022/07/17 04:05:31;;;;;;;10.35;2.90;;;;;;;11.98;72.61;102629.78;5082380;28;20025;-80
2022/07/17 04:07:57;;;;;;;9.20;3.20;;;;;;;11.98;72.94;102628.94;5085975;28;20028;-80
2022/07/17 04:10:22;;;;;;;7.38;3.17;;;;;;;11.98;72.84;102640.44;5083296;28;20348;-80
2022/07/17 04:12:48;;;;;;;8.98;2.78;;;;;;;11.95;72.75;102637.09;5081979;28;20078;-80
2022/07/17 04:15:48;;;;;;;5.45;3.00;;;;;;;11.92;72.92;102643.44;5072545;28;20149;-80
2022/07/17 04:17:58;;;;;;;7.40;3.15;;;;;;;11.96;72.63;102644.16;5080471;28;20078;-80
2022/07/17 04:20:24;;;;;;;8.23;3.30;;;;;;;11.92;72.81;102640.75;5075722;28;20048;-80
2022/07/17 04:22:49;;;;;;;7.97;3.50;;;;;;;11.93;72.89;102649.63;5088300;28;20031;-81
2022/07/17 04:25:14;;;;;;;7.97;3.20;;;;;;;11.91;73.33;102651.50;5076040;28;20013;-80
2022/07/17 04:27:43;;;;;;;9.50;2.90;;;;;;;11.92;73.13;102650.56;5077036;28;20101;-80
2022/07/17 04:30:08;;;;;;;10.55;3.22;;;;;;;11.95;72.89;102648.59;5081565;28;20297;-81
2022/07/17 04:32:34;;;;;;;9.07;3.13;;;;;;;11.90;73.55;102645.28;5091951;28;20074;-80
2022/07/17 04:34:59;;;;;;;9.77;3.10;;;;;;;11.88;73.84;102643.66;5093526;28;20012;-81
2022/07/17 04:37:24;;;;;;;5.60;2.95;;;;;;;11.95;73.57;102647.75;5084473;28;20037;-81
2022/07/17 04:39:49;;;;;;;6.65;3.40;;;;;;;11.96;73.62;102645.00;5088166;28;20070;-81
2022/07/17 04:42:15;;;;;;;8.97;3.27;;;;;;;12.00;73.48;102629.72;5093548;28;20028;-81
2022/07/17 04:44:40;;;;;;;12.05;3.47;;;;;;;12.03;74.05;102632.22;5086487;28;20279;-81
2022/07/17 04:47:05;;;;;;;9.60;4.13;;;;;;;12.05;73.92;102630.31;5087278;28;20093;-80
2022/07/17 04:49:31;;;;;;;10.30;3.28;;;;;;;12.12;74.00;102639.69;5085619;28;20630;-81
2022/07/17 04:51:56;;;;;;;10.25;3.47;;;;;;;12.20;73.81;102647.28;5088887;28;20379;-81
2022/07/17 04:54:21;;;;;;;16.65;3.85;;;;;;;12.25;74.11;102642.56;5070178;28;20025;-81
2022/07/17 04:56:46;;;;;;;7.90;3.40;;;;;;;12.33;73.89;102644.81;5057118;28;20063;-81
2022/07/17 04:59:12;;;;;;;9.73;3.70;;;;;;;12.34;74.63;102650.03;5065085;28;20493;-81
2022/07/17 05:01:37;;;;;;;10.02;3.67;;;;;;;12.45;74.12;102665.44;5066063;28;20036;-81
2022/07/17 05:04:04;;;;;;;6.07;3.40;;;;;;;12.55;74.31;102665.78;5060711;28;20438;-81
2022/07/17 05:06:29;;;;;;;11.00;3.90;;;;;;;12.67;73.76;102664.22;5072397;28;20059;-81
2022/07/17 05:08:55;;;;;;;6.57;3.50;;;;;;;12.72;73.63;102663.03;5072017;28;20056;-81
2022/07/17 05:11:20;;;;;;;6.53;3.50;;;;;;;12.82;73.21;102657.16;5060022;28;20040;-82
2022/07/17 05:13:45;;;;;;;21.17;3.83;;;;;;;12.91;72.74;102659.31;5072774;28;20605;-81
2022/07/17 05:16:11;;;;;;;21.25;4.28;;;;;;;12.98;72.36;102650.00;5069709;28;20033;-81
2022/07/17 05:18:36;;;;;;;12.38;3.80;;;;;;;13.08;72.31;102653.00;5054401;28;20024;-81
2022/07/17 05:21:02;;;;;;;9.15;3.65;;;;;;;13.11;72.06;102642.16;5054491;28;20059;-80
2022/07/17 05:23:27;;;;;;;7.53;3.33;;;;;;;13.18;71.79;102634.66;5068719;28;20027;-82
2022/07/17 05:25:52;;;;;;;11.60;4.13;;;;;;;13.22;72.16;102637.06;5070582;28;20044;-80
2022/07/17 05:28:18;;;;;;;8.82;3.90;;;;;;;13.24;72.35;102643.16;5058613;28;20108;-81
2022/07/17 05:30:43;;;;;;;7.78;3.30;;;;;;;13.36;72.61;102643.41;5067149;28;20533;-81
2022/07/17 05:33:09;;;;;;;8.40;3.55;;;;;;;13.46;72.38;102650.75;5066910;28;20057;-82
2022/07/17 05:35:34;;;;;;;8.95;3.95;;;;;;;13.55;72.36;102649.34;5077982;28;20395;-81
2022/07/17 05:38:01;;;;;;;8.98;3.40;;;;;;;13.74;71.70;102653.56;5075602;28;20174;-81
2022/07/17 05:40:26;;;;;;;9.50;3.10;;;;;;;13.94;71.12;102644.31;5078825;28;20060;-82
2022/07/17 05:42:51;;;;;;;8.65;3.45;;;;;;;14.10;69.98;102653.09;5061502;28;20068;-82
2022/07/17 05:45:17;;;;;;;8.98;3.28;;;;;;;14.31;68.78;102642.88;5064579;28;20033;-81
2022/07/17 05:47:42;;;;;;;6.63;2.75;;;;;;;14.53;68.26;102636.16;5069218;28;20068;-81
2022/07/17 05:50:07;;;;;;;6.43;2.95;;;;;;;14.74;67.14;102640.13;5083079;28;20088;-83
2022/07/17 05:52:33;;;;;;;10.85;3.30;;;;;;;14.90;65.61;102647.97;5067650;28;20041;-82
2022/07/17 05:54:58;;;;;;;6.30;2.97;;;;;;;15.09;64.89;102646.78;5078816;28;20028;-82
2022/07/17 05:57:23;;;;;;;6.32;2.97;;;;;;;15.27;64.16;102640.19;5072125;28;20056;-83
2022/07/17 05:59:49;;;;;;;6.65;3.10;;;;;;;15.49;63.88;102634.22;5072510;28;20119;-82
2022/07/17 06:02:15;;;;;;;6.30;3.00;;;;;;;15.66;62.57;102638.38;5079720;28;20110;-84
2022/07/17 06:04:41;;;;;;;9.32;3.10;;;;;;;15.84;62.13;102636.28;5070747;28;20052;-83
2022/07/17 06:07:06;;;;;;;7.30;3.10;;;;;;;15.96;61.44;102634.56;5068153;28;20069;-83
2022/07/17 06:09:34;;;;;;;11.93;3.65;;;;;;;16.12;61.27;102623.59;5074819;28;20043;-83
2022/07/17 06:11:59;;;;;;;9.23;3.95;;;;;;;16.32;60.89;102614.13;5068217;28;20262;-83
2022/07/17 06:14:25;;;;;;;10.32;3.75;;;;;;;16.44;60.09;102623.09;5064774;28;20069;-82
2022/07/17 06:16:50;;;;;;;9.95;3.75;;;;;;;16.69;60.39;102622.13;5068282;28;20028;-83
2022/07/17 06:19:16;;;;;;;9.13;3.58;;;;;;;16.85;59.45;102612.94;5073541;28;20528;-83
2022/07/17 06:21:42;;;;;;;5.47;3.53;;;;;;;17.01;58.78;102616.19;5075393;28;20356;-84
2022/07/17 06:24:07;;;;;;;7.03;3.50;;;;;;;17.31;58.10;102617.50;5074689;28;20131;-83
2022/07/17 06:26:32;;;;;;;7.85;4.13;;;;;;;17.45;58.13;102613.75;5077224;28;20287;-83
2022/07/17 06:28:57;;;;;;;7.95;4.00;;;;;;;17.57;57.13;102624.41;5075560;28;20403;-83
2022/07/17 06:31:23;;;;;;;6.80;3.55;;;;;;;17.81;57.74;102626.13;5081264;28;20028;-83
2022/07/17 06:33:51;;;;;;;9.70;4.10;;;;;;;17.96;56.54;102639.38;5078008;28;20048;-83
2022/07/17 06:36:16;;;;;;;6.95;3.85;;;;;;;18.10;55.53;102642.66;5082237;28;20336;-83
2022/07/17 06:38:42;;;;;;;9.52;3.90;;;;;;;18.30;55.53;102640.19;5080761;28;20036;-83
2022/07/17 06:41:07;;;;;;;9.83;3.97;;;;;;;18.62;54.25;102636.72;5083800;28;20077;-83
2022/07/17 06:43:32;;;;;;;7.22;3.75;;;;;;;18.73;54.18;102647.41;5081982;28;20291;-83
2022/07/17 06:45:58;;;;;;;8.57;3.38;;;;;;;18.92;53.88;102660.25;5084802;28;20021;-83
2022/07/17 06:48:23;;;;;;;7.63;3.97;;;;;;;19.06;53.62;102655.56;5082683;28;20074;-83
2022/07/17 06:50:48;;;;;;;7.82;3.60;;;;;;;19.29;54.02;102656.31;5082055;28;20578;-85
2022/07/17 06:53:14;;;;;;;8.38;3.90;;;;;;;19.47;53.13;102654.72;5085620;28;20052;-83
2022/07/17 06:55:39;;;;;;;7.72;3.67;;;;;;;19.75;52.78;102658.63;5096641;28;20032;-84
2022/07/17 06:58:05;;;;;;;7.32;4.05;;;;;;;20.08;50.69;102656.59;5103919;28;20032;-84
2022/07/17 07:00:33;;;;;;;10.45;3.80;;;;;;;20.24;50.93;102652.56;5106818;28;20040;-85
2022/07/17 07:02:58;;;;;;;7.25;3.42;;;;;;;20.47;50.47;102664.00;5103490;28;20031;-84
2022/07/17 07:05:24;;;;;;;8.38;3.85;;;;;;;20.61;50.29;102665.44;5092191;28;20450;-83
2022/07/17 07:07:49;;;;;;;5.57;3.45;;;;;;;21.04;48.40;102666.94;5089434;28;20069;-83
2022/07/17 07:10:15;;;;;;;6.40;3.67;;;;;;;21.22;48.14;102672.47;5097026;28;20050;-83
2022/07/17 07:12:40;;;;;;;8.85;3.55;;;;;;;21.24;47.54;102678.59;5096776;28;20034;-84
2022/07/17 07:15:06;;;;;;;7.75;3.00;;;;;;;21.47;45.65;102678.25;5096410;28;20040;-84
2022/07/17 07:17:33;;;;;;;7.70;3.78;;;;;;;21.76;46.66;102689.06;5106190;28;20024;-84
2022/07/17 07:19:59;;;;;;;12.25;4.53;;;;;;;22.03;47.27;102684.69;5105319;28;20013;-84
2022/07/17 07:22:25;;;;;;;6.07;3.28;;;;;;;22.27;46.07;102678.75;5100643;28;20052;-84
2022/07/17 07:24:50;;;;;;;11.02;3.17;;;;;;;22.37;45.71;102673.34;5085941;28;20027;-84
2022/07/17 07:27:15;;;;;;;6.93;2.80;;;;;;;22.63;43.85;102668.91;5095585;28;20044;-84
2022/07/17 07:29:41;;;;;;;10.00;3.10;;;;;;;22.71;44.75;102668.94;5087714;28;20032;-84
2022/07/17 07:32:06;;;;;;;10.05;2.70;;;;;;;23.00;43.37;102664.31;5094417;28;20289;-83
2022/07/17 07:34:31;;;;;;;12.75;3.70;;;;;;;23.08;41.90;102670.72;5091188;28;20028;-83
2022/07/17 07:36:57;;;;;;;9.20;2.90;;;;;;;23.21;42.63;102661.31;5085735;28;20028;-84
2022/07/17 07:39:22;;;;;;;8.23;2.77;;;;;;;23.42;42.80;102666.41;5089020;28;20310;-84
2022/07/17 07:41:47;;;;;;;10.95;3.10;;;;;;;23.66;41.58;102671.13;5093170;28;20591;-85
2022/07/17 07:44:12;;;;;;;12.37;3.20;;;;;;;23.78;42.10;102671.72;5093157;28;20447;-84
2022/07/17 07:46:38;;;;;;;10.52;2.88;;;;;;;23.97;42.08;102676.09;5082398;28;20349;-85
2022/07/17 07:49:03;;;;;;;10.03;2.87;;;;;;;24.14;41.89;102672.44;5097107;28;20642;-83
2022/07/17 07:51:29;;;;;;;7.00;2.70;;;;;;;24.25;41.59;102674.03;5097569;28;20415;-81
2022/07/17 07:53:54;;;;;;;8.20;2.80;;;;;;;24.67;40.93;102681.31;5072582;28;20031;-83
2022/07/17 07:56:23;;;;;;;7.28;2.72;;;;;;;24.73;39.59;102675.22;5088284;28;20035;-84
2022/07/17 07:58:48;;;;;;;9.30;2.60;;;;;;;24.88;39.97;102682.69;5097927;28;20036;-82
2022/07/17 08:01:14;;;;;;;7.05;2.40;;;;;;;24.91;38.89;102680.50;5103799;28;20059;-85
2022/07/17 08:03:40;;;;;;;8.43;2.38;;;;;;;25.10;37.88;102678.47;5106319;28;20036;-84
2022/07/17 08:06:07;;;;;;;5.85;2.30;;;;;;;25.08;37.84;102669.63;5107102;28;20482;-84
2022/07/17 08:08:32;;;;;;;12.02;2.67;;;;;;;25.33;38.58;102677.81;5101522;28;20028;-82
2022/07/17 08:10:57;;;;;;;9.93;2.70;;;;;;;25.52;37.97;102677.47;5086882;28;20112;-85
2022/07/17 08:13:23;;;;;;;7.43;2.22;;;;;;;25.61;37.00;102675.56;5096418;28;20778;-84
2022/07/17 08:15:51;;;;;;;6.53;2.10;;;;;;;25.64;36.57;102691.56;5095358;28;20028;-84
2022/07/17 08:18:16;;;;;;;5.70;2.47;;;;;;;25.67;36.28;102680.31;5093223;28;20066;-83
2022/07/17 08:20:43;;;;;;;6.20;2.08;;;;;;;26.01;35.90;102696.44;5079846;28;20036;-85
2022/07/17 08:23:08;;;;;;;7.60;2.15;;;;;;;25.96;35.22;102687.94;5075413;28;20103;-86
2022/07/17 08:25:37;;;;;;;5.70;1.80;;;;;;;26.16;34.64;102679.34;5091060;28;20392;-87
2022/07/17 08:28:03;;;;;;;3.85;1.52;;;;;;;26.27;33.99;102683.56;5093384;28;20040;-86
2022/07/17 08:30:31;;;;;;;6.93;2.63;;;;;;;26.44;35.27;102684.34;5093703;28;20027;-86
2022/07/17 08:32:56;;;;;;;9.18;2.17;;;;;;;26.72;35.54;102680.09;5070210;28;20035;-85
2022/07/17 08:35:22;;;;;;;6.75;1.90;;;;;;;26.88;34.39;102670.09;5069585;28;20029;-86
2022/07/17 08:37:52;;;;;;;3.53;1.80;;;;;;;26.86;33.02;102675.75;5078720;28;20115;-86
2022/07/17 08:40:18;;;;;;;4.38;1.77;;;;;;;26.97;32.71;102676.34;5075776;28;20036;-87
2022/07/17 08:42:44;;;;;;;5.75;1.90;;;;;;;27.04;33.06;102675.44;5090301;28;20036;-85
2022/07/17 08:45:11;;;;;;;9.65;1.85;;;;;;;27.11;33.76;102673.69;5097040;28;20030;-87
2022/07/17 08:47:38;;;;;;;4.28;1.90;;;;;;;27.48;33.25;102673.91;5099470;28;20481;-87
2022/07/17 08:50:04;;;;;;;5.13;1.60;;;;;;;27.54;32.94;102670.41;5078614;28;20111;-87
2022/07/17 08:52:30;;;;;;;5.70;1.77;;;;;;;27.78;32.12;102674.75;5087690;28;20045;-86
2022/07/17 08:54:55;;;;;;;6.13;1.95;;;;;;;28.02;31.80;102667.34;5072235;28;20014;-87
2022/07/17 08:57:20;;;;;;;5.40;1.88;;;;;;;28.05;32.16;102669.69;5097988;28;20025;-87
2022/07/17 08:59:49;;;;;;;5.72;2.10;;;;;;;28.04;32.09;102662.53;5072453;28;20070;-86
2022/07/17 09:02:14;;;;;;;;;;;;;;;28.58;34.35;102664.06;5054515;28;20107;-86
2022/07/17 09:04:42;;;;;;;4.43;1.67;;;;;;;28.36;30.91;102664.00;5074068;28;19943;-86
2022/07/17 09:07:07;;;;;;;4.37;1.77;;;;;;;28.35;30.30;102664.19;5059888;28;20035;-85
2022/07/17 09:09:33;;;;;;;3.88;1.63;;;;;;;28.50;30.49;102664.97;5073995;28;20103;-87
2022/07/17 09:12:05;;;;;;;3.45;1.70;;;;;;;28.56;30.28;102666.13;5073336;28;20323;-86
2022/07/17 09:14:41;;;;;;;6.30;1.60;;;;;;;28.72;31.18;102665.88;5073669;28;20093;-87
2022/07/17 09:17:11;;;;;;;4.80;1.50;;;;;;;29.02;30.02;102648.50;5072798;28;20113;-86
2022/07/17 09:19:46;;;;;;;3.00;1.60;;;;;;;28.88;29.22;102648.38;5073649;28;20043;-87
2022/07/17 09:22:22;;;;;;;5.70;1.83;;;;;;;29.22;29.63;102657.72;5064471;28;20028;-87
2022/07/17 09:24:54;;;;;;;6.60;1.73;;;;;;;29.24;29.44;102666.59;5074879;28;20032;-87
2022/07/17 09:27:31;;;;;;;6.38;1.83;;;;;;;29.32;30.08;102663.69;5061875;28;20022;-86
2022/07/17 09:29:58;;;;;;;6.13;1.73;;;;;;;29.16;28.87;102656.63;5047307;28;20430;-87
2022/07/17 09:32:26;;;;;;;7.93;1.85;;;;;;;29.46;29.09;102656.44;5075958;28;20474;-86
2022/07/17 09:34:53;;;;;;;;;;;;;;;30.00;30.79;102659.53;5080610;28;20112;-87
2022/07/17 09:37:24;;;;;;;3.85;1.60;;;;;;;29.80;29.33;102665.75;5062464;28;19967;-87
2022/07/17 09:39:51;;;;;;;5.22;1.60;;;;;;;29.96;28.52;102656.34;5045938;28;20034;-86
2022/07/17 09:42:32;;;;;;;5.68;1.77;;;;;;;29.96;29.84;102655.50;5076793;28;20020;-87
2022/07/17 09:45:15;;;;;;;3.88;1.58;;;;;;;29.56;26.39;102656.09;5073981;28;20025;-87
2022/07/17 09:47:40;;;;;;;2.28;1.20;;;;;;;29.73;26.22;102650.28;5072455;28;20485;-87
2022/07/17 09:50:08;;;;;;;4.53;1.50;;;;;;;29.68;26.90;102657.22;5078602;28;20052;-87
2022/07/17 09:52:37;;;;;;;4.85;1.30;;;;;;;30.03;25.15;102654.47;5087690;28;20053;-85
2022/07/17 09:55:03;;;;;;;3.45;1.48;;;;;;;29.97;26.74;102649.81;5079248;28;20035;-86
2022/07/17 09:57:31;;;;;;;2.72;1.40;;;;;;;30.18;25.93;102659.81;5102544;28;20028;-85
2022/07/17 10:00:05;;;;;;;3.78;1.50;;;;;;;30.33;26.30;102648.69;5092861;28;20031;-85
2022/07/17 10:02:33;;;;;;;9.63;3.40;;;;;;;30.40;25.79;102646.84;5085262;28;20391;-88
2022/07/17 10:04:59;;;;;;;3.97;1.50;;;;;;;30.62;24.83;102644.75;5099067;28;20031;-88
2022/07/17 10:07:25;;;;;;;4.03;1.60;;;;;;;30.74;24.55;102652.38;5099995;28;20024;-87
2022/07/17 10:09:53;;;;;;;5.53;1.33;;;;;;;31.21;25.49;102652.44;5084402;28;20078;-88
2022/07/17 10:12:19;;;;;;;4.70;1.30;;;;;;;31.33;25.58;102648.00;5087698;28;20107;-88
2022/07/17 10:14:48;;;;;;;4.50;1.50;;;;;;;31.52;24.22;102655.38;5089606;28;20111;-88
2022/07/17 10:17:20;;;;;;;3.75;1.10;;;;;;;31.45;24.66;102643.53;5099381;28;20028;-87
2022/07/17 10:19:50;;;;;;;5.68;1.38;;;;;;;31.59;23.65;102649.88;5095933;28;20081;-87
2022/07/17 10:22:16;;;;;;;3.88;1.35;;;;;;;31.62;22.42;102652.19;5078250;28;20028;-87
2022/07/17 10:24:49;;;;;;;2.40;1.30;;;;;;;31.56;22.77;102649.47;5090832;28;20028;-86
2022/07/17 10:27:23;;;;;;;4.30;1.20;;;;;;;31.63;23.83;102651.13;5074511;28;20035;-88
2022/07/17 10:30:06;;;;;;;3.70;1.35;;;;;;;32.09;24.41;102654.81;5095626;28;20368;-85
2022/07/17 10:32:33;;;;;;;3.67;1.45;;;;;;;31.98;23.27;102650.81;5095652;28;20035;-85
2022/07/17 10:35:10;;;;;;;2.92;1.38;;;;;;;31.86;24.62;102656.16;5093226;28;20040;-85
2022/07/17 10:37:35;;;;;;;5.63;2.78;;;;;;;32.30;23.65;102639.06;5068332;28;20063;-85
2022/07/17 10:40:00;;;;;;;4.70;1.40;;;;;;;32.34;23.52;102643.06;5095961;28;20054;-85
2022/07/17 10:43:00;;;;;;;4.60;1.60;;;;;;;32.58;24.61;102646.94;5089236;28;20024;-85
2022/07/17 10:45:35;;;;;;;3.30;1.40;;;;;;;32.21;23.03;102650.31;5081718;28;20107;-87
2022/07/17 10:48:07;;;;;;;4.05;1.60;;;;;;;32.60;22.88;102640.13;5094024;28;20412;-87
2022/07/17 10:50:40;;;;;;;4.90;1.33;;;;;;;32.80;23.70;102641.94;5094710;28;20644;-86
2022/07/17 10:53:20;;;;;;;3.22;1.40;;;;;;;32.66;23.33;102637.59;5088297;28;20036;-87
2022/07/17 10:55:51;;;;;;;4.32;1.33;;;;;;;32.68;22.62;102643.72;5079552;28;20029;-84
2022/07/17 10:58:18;;;;;;;4.88;1.88;;;;;;;32.33;22.93;102641.38;5095287;28;20034;-86
2022/07/17 11:00:43;;;;;;;5.28;1.30;;;;;;;32.43;22.64;102650.00;5081036;28;20120;-87
2022/07/17 11:03:11;;;;;;;5.63;1.60;;;;;;;32.63;22.76;102649.91;5095487;28;20056;-87
2022/07/17 11:05:36;;;;;;;2.85;1.50;;;;;;;32.32;22.78;102645.19;5086738;28;20043;-87
2022/07/17 11:08:06;;;;;;;4.73;1.50;;;;;;;32.01;23.42;102644.88;5094627;28;20446;-87
2022/07/17 11:10:31;;;;;;;5.72;1.35;;;;;;;32.42;23.57;102648.28;5095683;28;20043;-85
2022/07/17 11:13:11;;;;;;;3.47;1.38;;;;;;;32.47;24.34;102640.22;5096071;28;20055;-85
2022/07/17 11:15:39;;;;;;;5.78;1.60;;;;;;;32.19;23.99;102637.84;5087081;28;20016;-84
2022/07/17 11:18:10;;;;;;;5.88;1.48;;;;;;;32.32;24.32;102631.44;5093240;28;20020;-84
2022/07/17 11:20:53;;;;;;;3.72;1.40;;;;;;;32.56;24.28;102636.16;5095634;28;20055;-85
2022/07/17 11:23:20;;;;;;;6.28;1.92;;;;;;;32.38;24.35;102627.81;5091759;28;20048;-85
2022/07/17 11:26:04;;;;;;;5.43;1.63;;;;;;;32.58;25.02;102636.78;5096316;28;20116;-84
2022/07/17 11:28:37;;;;;;;4.32;1.60;;;;;;;32.75;24.78;102639.84;5084260;28;20032;-87